Terminal Aerodrome Forecast
Issued by NWS Bismarck, ND

Home | Current Version | Previous Version | Graphics & Text | Print | Product List | Glossary On
Versions: 1 2 3 4 5 6 7 8 9 10 11 12 13 14 15 16 17 18 19 20 21 22 23 24 25 26 27 28 29 30 31 32
136
FTUS43 KBIS 252332
TAFISN
TAF
KISN 252332Z 2600/2624 34008KT 1SM -SN OVC015
      TEMPO 2600/2602 1/2SM SN OVC009
     FM260300 35007KT P6SM VCSH BKN040
     FM260500 VRB03KT P6SM SCT025 BKN060
     FM261500 19005KT P6SM VCSH OVC015
     FM262000 26007KT P6SM BKN015
     FM262300 31007KT P6SM BKN020=

USA.gov is the U.S. government's official web portal to all federal, state and local government web resources and services.